sensor_id;sensor_type;location;lat;lon;timestamp;P1;durP1;ratioP1;P2;durP2;ratioP2
4420;SDS011;11824;51.178;13.546;2022-08-19T00:00:11;17.70;;;15.80;;
4420;SDS011;11824;51.178;13.546;2022-08-19T00:02:42;19.73;;;15.30;;
4420;SDS011;11824;51.178;13.546;2022-08-19T00:05:16;18.80;;;16.90;;
4420;SDS011;11824;51.178;13.546;2022-08-19T00:07:45;23.40;;;17.23;;
4420;SDS011;11824;51.178;13.546;2022-08-19T00:10:15;23.93;;;17.77;;
4420;SDS011;11824;51.178;13.546;2022-08-19T00:12:46;23.17;;;17.90;;
4420;SDS011;11824;51.178;13.546;2022-08-19T00:15:17;20.77;;;17.83;;
4420;SDS011;11824;51.178;13.546;2022-08-19T00:17:49;22.73;;;17.77;;
4420;SDS011;11824;51.178;13.546;2022-08-19T00:20:19;19.30;;;16.73;;
4420;SDS011;11824;51.178;13.546;2022-08-19T00:22:48;19.40;;;17.33;;
4420;SDS011;11824;51.178;13.546;2022-08-19T00:25:18;20.50;;;18.13;;
4420;SDS011;11824;51.178;13.546;2022-08-19T00:27:57;22.63;;;17.60;;
4420;SDS011;11824;51.178;13.546;2022-08-19T00:30:26;23.97;;;16.97;;
4420;SDS011;11824;51.178;13.546;2022-08-19T00:32:55;24.57;;;19.17;;
4420;SDS011;11824;51.178;13.546;2022-08-19T00:35:23;26.77;;;18.30;;
4420;SDS011;11824;51.178;13.546;2022-08-19T00:37:53;20.77;;;17.50;;
4420;SDS011;11824;51.178;13.546;2022-08-19T00:40:22;24.80;;;18.97;;
4420;SDS011;11824;51.178;13.546;2022-08-19T00:42:51;20.00;;;17.17;;
4420;SDS011;11824;51.178;13.546;2022-08-19T00:45:24;20.20;;;16.53;;
4420;SDS011;11824;51.178;13.546;2022-08-19T00:47:54;21.37;;;16.97;;
4420;SDS011;11824;51.178;13.546;2022-08-19T00:50:23;29.70;;;21.13;;
4420;SDS011;11824;51.178;13.546;2022-08-19T00:52:51;23.87;;;19.20;;
4420;SDS011;11824;51.178;13.546;2022-08-19T00:55:21;22.70;;;20.27;;
4420;SDS011;11824;51.178;13.546;2022-08-19T00:57:53;23.40;;;18.67;;
4420;SDS011;11824;51.178;13.546;2022-08-19T01:00:25;21.47;;;19.17;;
4420;SDS011;11824;51.178;13.546;2022-08-19T01:02:55;21.17;;;18.90;;
4420;SDS011;11824;51.178;13.546;2022-08-19T01:05:26;23.47;;;18.50;;
4420;SDS011;11824;51.178;13.546;2022-08-19T01:07:56;23.83;;;18.97;;
4420;SDS011;11824;51.178;13.546;2022-08-19T01:10:28;21.73;;;19.43;;
4420;SDS011;11824;51.178;13.546;2022-08-19T01:13:03;23.97;;;18.73;;
4420;SDS011;11824;51.178;13.546;2022-08-19T01:15:39;28.40;;;18.57;;
4420;SDS011;11824;51.178;13.546;2022-08-19T01:18:11;21.50;;;18.63;;
4420;SDS011;11824;51.178;13.546;2022-08-19T01:20:42;21.43;;;18.53;;
4420;SDS011;11824;51.178;13.546;2022-08-19T01:23:13;31.57;;;18.20;;
4420;SDS011;11824;51.178;13.546;2022-08-19T01:25:44;22.73;;;20.07;;
4420;SDS011;11824;51.178;13.546;2022-08-19T01:28:17;25.00;;;19.90;;
4420;SDS011;11824;51.178;13.546;2022-08-19T01:31:05;27.77;;;19.13;;
4420;SDS011;11824;51.178;13.546;2022-08-19T01:33:53;22.53;;;19.60;;
4420;SDS011;11824;51.178;13.546;2022-08-19T01:36:25;23.47;;;19.77;;
4420;SDS011;11824;51.178;13.546;2022-08-19T01:38:58;27.03;;;20.80;;
4420;SDS011;11824;51.178;13.546;2022-08-19T01:41:29;23.30;;;18.93;;
4420;SDS011;11824;51.178;13.546;2022-08-19T01:43:58;22.33;;;19.60;;
4420;SDS011;11824;51.178;13.546;2022-08-19T01:46:44;21.43;;;18.90;;
4420;SDS011;11824;51.178;13.546;2022-08-19T01:49:14;24.60;;;19.80;;
4420;SDS011;11824;51.178;13.546;2022-08-19T01:51:44;21.57;;;18.87;;
4420;SDS011;11824;51.178;13.546;2022-08-19T01:54:15;23.00;;;18.57;;
4420;SDS011;11824;51.178;13.546;2022-08-19T01:56:53;21.80;;;17.30;;
4420;SDS011;11824;51.178;13.546;2022-08-19T01:59:25;22.17;;;19.83;;
4420;SDS011;11824;51.178;13.546;2022-08-19T02:01:55;26.00;;;19.87;;
4420;SDS011;11824;51.178;13.546;2022-08-19T02:04:23;25.70;;;19.17;;
4420;SDS011;11824;51.178;13.546;2022-08-19T02:06:53;24.00;;;17.53;;
4420;SDS011;11824;51.178;13.546;2022-08-19T02:09:23;21.63;;;18.57;;
4420;SDS011;11824;51.178;13.546;2022-08-19T02:11:52;20.93;;;18.67;;
4420;SDS011;11824;51.178;13.546;2022-08-19T02:14:20;23.13;;;20.70;;
4420;SDS011;11824;51.178;13.546;2022-08-19T02:16:49;22.70;;;18.70;;
4420;SDS011;11824;51.178;13.546;2022-08-19T02:19:17;22.27;;;18.10;;
4420;SDS011;11824;51.178;13.546;2022-08-19T02:21:46;25.80;;;21.20;;
4420;SDS011;11824;51.178;13.546;2022-08-19T02:24:15;22.70;;;20.13;;
4420;SDS011;11824;51.178;13.546;2022-08-19T02:26:45;23.83;;;18.70;;
4420;SDS011;11824;51.178;13.546;2022-08-19T02:29:13;26.00;;;21.63;;
4420;SDS011;11824;51.178;13.546;2022-08-19T02:31:42;24.97;;;18.23;;
4420;SDS011;11824;51.178;13.546;2022-08-19T02:34:11;22.53;;;18.17;;
4420;SDS011;11824;51.178;13.546;2022-08-19T02:36:40;22.57;;;20.20;;
4420;SDS011;11824;51.178;13.546;2022-08-19T02:39:17;24.20;;;20.00;;
4420;SDS011;11824;51.178;13.546;2022-08-19T02:41:46;29.00;;;21.50;;
4420;SDS011;11824;51.178;13.546;2022-08-19T02:44:15;24.23;;;20.00;;
4420;SDS011;11824;51.178;13.546;2022-08-19T02:46:56;22.00;;;19.20;;
4420;SDS011;11824;51.178;13.546;2022-08-19T02:49:25;25.43;;;19.77;;
4420;SDS011;11824;51.178;13.546;2022-08-19T02:51:54;23.13;;;20.43;;
4420;SDS011;11824;51.178;13.546;2022-08-19T02:54:22;25.27;;;19.17;;
4420;SDS011;11824;51.178;13.546;2022-08-19T02:56:53;27.23;;;21.37;;
4420;SDS011;11824;51.178;13.546;2022-08-19T02:59:21;24.33;;;19.40;;
4420;SDS011;11824;51.178;13.546;2022-08-19T03:01:52;24.27;;;19.27;;
4420;SDS011;11824;51.178;13.546;2022-08-19T03:04:21;21.80;;;19.50;;
4420;SDS011;11824;51.178;13.546;2022-08-19T03:06:50;21.60;;;18.83;;
4420;SDS011;11824;51.178;13.546;2022-08-19T03:09:24;22.27;;;19.67;;
4420;SDS011;11824;51.178;13.546;2022-08-19T03:11:54;21.57;;;18.37;;
4420;SDS011;11824;51.178;13.546;2022-08-19T03:14:24;35.13;;;20.70;;
4420;SDS011;11824;51.178;13.546;2022-08-19T03:16:54;24.43;;;19.67;;
4420;SDS011;11824;51.178;13.546;2022-08-19T03:19:22;21.60;;;18.03;;
4420;SDS011;11824;51.178;13.546;2022-08-19T03:21:51;21.60;;;19.00;;
4420;SDS011;11824;51.178;13.546;2022-08-19T03:24:21;24.83;;;15.03;;
4420;SDS011;11824;51.178;13.546;2022-08-19T03:26:51;26.57;;;18.50;;
4420;SDS011;11824;51.178;13.546;2022-08-19T03:29:25;28.17;;;19.47;;
4420;SDS011;11824;51.178;13.546;2022-08-19T03:31:58;23.40;;;20.40;;
4420;SDS011;11824;51.178;13.546;2022-08-19T03:34:30;23.33;;;19.70;;
4420;SDS011;11824;51.178;13.546;2022-08-19T03:37:03;21.87;;;19.60;;
4420;SDS011;11824;51.178;13.546;2022-08-19T03:39:35;21.50;;;18.40;;
4420;SDS011;11824;51.178;13.546;2022-08-19T03:42:06;21.70;;;18.17;;
4420;SDS011;11824;51.178;13.546;2022-08-19T03:44:55;21.87;;;19.07;;
4420;SDS011;11824;51.178;13.546;2022-08-19T03:47:24;26.17;;;19.90;;
4420;SDS011;11824;51.178;13.546;2022-08-19T03:49:52;22.30;;;19.37;;
4420;SDS011;11824;51.178;13.546;2022-08-19T03:52:21;19.67;;;17.57;;
4420;SDS011;11824;51.178;13.546;2022-08-19T03:54:50;22.33;;;19.30;;
4420;SDS011;11824;51.178;13.546;2022-08-19T03:57:20;28.00;;;19.37;;
4420;SDS011;11824;51.178;13.546;2022-08-19T03:59:57;22.50;;;19.27;;
4420;SDS011;11824;51.178;13.546;2022-08-19T04:02:38;21.87;;;18.20;;
4420;SDS011;11824;51.178;13.546;2022-08-19T04:05:26;24.37;;;19.53;;
4420;SDS011;11824;51.178;13.546;2022-08-19T04:07:55;22.93;;;19.50;;
4420;SDS011;11824;51.178;13.546;2022-08-19T04:10:25;26.83;;;20.07;;
4420;SDS011;11824;51.178;13.546;2022-08-19T04:12:56;22.93;;;19.50;;
4420;SDS011;11824;51.178;13.546;2022-08-19T04:15:25;20.23;;;18.17;;
4420;SDS011;11824;51.178;13.546;2022-08-19T04:17:55;26.13;;;19.67;;
4420;SDS011;11824;51.178;13.546;2022-08-19T04:20:24;22.50;;;19.53;;
4420;SDS011;11824;51.178;13.546;2022-08-19T04:22:52;20.63;;;18.43;;
4420;SDS011;11824;51.178;13.546;2022-08-19T04:25:21;21.17;;;18.47;;
4420;SDS011;11824;51.178;13.546;2022-08-19T04:27:50;22.90;;;18.90;;
4420;SDS011;11824;51.178;13.546;2022-08-19T04:30:22;22.77;;;20.00;;
4420;SDS011;11824;51.178;13.546;2022-08-19T04:32:51;21.77;;;18.30;;
4420;SDS011;11824;51.178;13.546;2022-08-19T04:35:20;22.97;;;19.70;;
4420;SDS011;11824;51.178;13.546;2022-08-19T04:37:50;26.60;;;19.80;;
4420;SDS011;11824;51.178;13.546;2022-08-19T04:40:19;26.93;;;19.60;;
4420;SDS011;11824;51.178;13.546;2022-08-19T04:43:02;24.20;;;20.17;;
4420;SDS011;11824;51.178;13.546;2022-08-19T04:45:32;22.17;;;17.40;;
4420;SDS011;11824;51.178;13.546;2022-08-19T04:48:04;24.93;;;18.30;;
4420;SDS011;11824;51.178;13.546;2022-08-19T04:50:52;25.63;;;20.73;;
4420;SDS011;11824;51.178;13.546;2022-08-19T04:53:26;21.73;;;19.40;;
4420;SDS011;11824;51.178;13.546;2022-08-19T04:56:04;23.33;;;18.63;;
4420;SDS011;11824;51.178;13.546;2022-08-19T04:58:35;22.63;;;18.83;;
4420;SDS011;11824;51.178;13.546;2022-08-19T05:01:06;22.93;;;18.70;;
4420;SDS011;11824;51.178;13.546;2022-08-19T05:03:36;22.27;;;18.07;;
4420;SDS011;11824;51.178;13.546;2022-08-19T05:06:06;21.27;;;17.97;;
4420;SDS011;11824;51.178;13.546;2022-08-19T05:08:37;25.27;;;18.07;;
4420;SDS011;11824;51.178;13.546;2022-08-19T05:11:09;20.73;;;17.67;;
4420;SDS011;11824;51.178;13.546;2022-08-19T05:13:40;24.93;;;19.63;;
4420;SDS011;11824;51.178;13.546;2022-08-19T05:16:11;30.30;;;18.60;;
4420;SDS011;11824;51.178;13.546;2022-08-19T05:18:40;23.30;;;17.80;;
4420;SDS011;11824;51.178;13.546;2022-08-19T05:21:27;18.77;;;16.47;;
4420;SDS011;11824;51.178;13.546;2022-08-19T05:24:14;22.07;;;16.70;;
4420;SDS011;11824;51.178;13.546;2022-08-19T05:26:44;17.30;;;15.17;;
4420;SDS011;11824;51.178;13.546;2022-08-19T05:29:15;21.30;;;15.70;;
4420;SDS011;11824;51.178;13.546;2022-08-19T05:31:49;18.07;;;13.87;;
4420;SDS011;11824;51.178;13.546;2022-08-19T05:34:20;16.53;;;13.53;;
4420;SDS011;11824;51.178;13.546;2022-08-19T05:36:52;15.40;;;13.90;;
4420;SDS011;11824;51.178;13.546;2022-08-19T05:39:23;14.63;;;13.17;;
4420;SDS011;11824;51.178;13.546;2022-08-19T05:41:59;15.67;;;12.63;;
4420;SDS011;11824;51.178;13.546;2022-08-19T05:44:30;13.63;;;12.23;;
4420;SDS011;11824;51.178;13.546;2022-08-19T05:47:04;13.93;;;11.43;;
4420;SDS011;11824;51.178;13.546;2022-08-19T05:49:35;15.50;;;11.63;;
4420;SDS011;11824;51.178;13.546;2022-08-19T05:52:04;16.53;;;13.17;;
4420;SDS011;11824;51.178;13.546;2022-08-19T05:54:34;15.50;;;12.57;;
4420;SDS011;11824;51.178;13.546;2022-08-19T05:57:06;16.00;;;13.27;;
4420;SDS011;11824;51.178;13.546;2022-08-19T05:59:38;13.03;;;11.73;;
4420;SDS011;11824;51.178;13.546;2022-08-19T06:02:09;13.47;;;12.03;;
4420;SDS011;11824;51.178;13.546;2022-08-19T06:04:39;19.33;;;12.33;;
4420;SDS011;11824;51.178;13.546;2022-08-19T06:07:09;16.60;;;13.00;;
4420;SDS011;11824;51.178;13.546;2022-08-19T06:09:38;17.73;;;13.63;;
4420;SDS011;11824;51.178;13.546;2022-08-19T06:12:24;18.20;;;15.10;;
4420;SDS011;11824;51.178;13.546;2022-08-19T06:14:55;16.63;;;14.83;;
4420;SDS011;11824;51.178;13.546;2022-08-19T06:17:28;17.27;;;15.50;;
4420;SDS011;11824;51.178;13.546;2022-08-19T06:20:00;18.10;;;16.20;;
4420;SDS011;11824;51.178;13.546;2022-08-19T06:22:30;24.20;;;17.23;;
4420;SDS011;11824;51.178;13.546;2022-08-19T06:24:58;23.33;;;18.87;;
4420;SDS011;11824;51.178;13.546;2022-08-19T06:27:27;25.77;;;18.33;;
4420;SDS011;11824;51.178;13.546;2022-08-19T06:29:59;24.83;;;18.40;;
4420;SDS011;11824;51.178;13.546;2022-08-19T06:32:30;24.43;;;19.83;;
4420;SDS011;11824;51.178;13.546;2022-08-19T06:35:00;27.10;;;19.90;;
4420;SDS011;11824;51.178;13.546;2022-08-19T06:37:29;24.43;;;20.10;;
4420;SDS011;11824;51.178;13.546;2022-08-19T06:39:57;25.73;;;20.07;;
4420;SDS011;11824;51.178;13.546;2022-08-19T06:42:26;28.10;;;23.20;;
4420;SDS011;11824;51.178;13.546;2022-08-19T06:44:56;27.57;;;20.93;;
4420;SDS011;11824;51.178;13.546;2022-08-19T06:47:25;28.07;;;21.37;;
4420;SDS011;11824;51.178;13.546;2022-08-19T06:49:56;25.30;;;21.87;;
4420;SDS011;11824;51.178;13.546;2022-08-19T06:52:30;27.03;;;21.07;;
4420;SDS011;11824;51.178;13.546;2022-08-19T06:55:02;27.43;;;23.10;;
4420;SDS011;11824;51.178;13.546;2022-08-19T06:57:32;26.83;;;21.00;;
4420;SDS011;11824;51.178;13.546;2022-08-19T07:00:01;22.00;;;18.93;;
4420;SDS011;11824;51.178;13.546;2022-08-19T07:02:35;26.73;;;20.20;;
4420;SDS011;11824;51.178;13.546;2022-08-19T07:05:07;28.30;;;19.00;;
4420;SDS011;11824;51.178;13.546;2022-08-19T07:07:38;23.10;;;19.93;;
4420;SDS011;11824;51.178;13.546;2022-08-19T07:10:12;25.30;;;19.83;;
4420;SDS011;11824;51.178;13.546;2022-08-19T07:12:46;32.03;;;19.77;;
4420;SDS011;11824;51.178;13.546;2022-08-19T07:15:16;27.57;;;19.03;;
4420;SDS011;11824;51.178;13.546;2022-08-19T07:17:47;22.43;;;18.67;;
4420;SDS011;11824;51.178;13.546;2022-08-19T07:20:19;20.80;;;17.90;;
4420;SDS011;11824;51.178;13.546;2022-08-19T07:22:54;34.73;;;17.80;;
4420;SDS011;11824;51.178;13.546;2022-08-19T07:25:29;22.13;;;17.60;;
4420;SDS011;11824;51.178;13.546;2022-08-19T07:27:58;26.07;;;18.77;;
4420;SDS011;11824;51.178;13.546;2022-08-19T07:30:27;20.40;;;18.00;;
4420;SDS011;11824;51.178;13.546;2022-08-19T07:32:59;23.00;;;16.83;;
4420;SDS011;11824;51.178;13.546;2022-08-19T07:35:30;23.33;;;17.40;;
4420;SDS011;11824;51.178;13.546;2022-08-19T07:37:59;21.83;;;18.43;;
4420;SDS011;11824;51.178;13.546;2022-08-19T07:40:30;29.50;;;19.07;;
4420;SDS011;11824;51.178;13.546;2022-08-19T07:43:00;22.57;;;19.20;;
4420;SDS011;11824;51.178;13.546;2022-08-19T07:45:29;20.43;;;18.20;;
4420;SDS011;11824;51.178;13.546;2022-08-19T07:47:59;24.20;;;18.80;;
4420;SDS011;11824;51.178;13.546;2022-08-19T07:50:31;22.93;;;17.40;;
4420;SDS011;11824;51.178;13.546;2022-08-19T07:52:59;21.97;;;19.00;;
4420;SDS011;11824;51.178;13.546;2022-08-19T07:55:28;19.40;;;16.90;;
4420;SDS011;11824;51.178;13.546;2022-08-19T07:58:08;21.10;;;18.73;;
4420;SDS011;11824;51.178;13.546;2022-08-19T08:00:38;22.27;;;18.00;;
4420;SDS011;11824;51.178;13.546;2022-08-19T08:03:09;23.90;;;17.50;;
4420;SDS011;11824;51.178;13.546;2022-08-19T08:05:40;18.77;;;16.17;;
4420;SDS011;11824;51.178;13.546;2022-08-19T08:08:26;24.37;;;16.83;;
4420;SDS011;11824;51.178;13.546;2022-08-19T08:11:18;19.57;;;16.10;;
4420;SDS011;11824;51.178;13.546;2022-08-19T08:13:49;23.27;;;17.23;;
4420;SDS011;11824;51.178;13.546;2022-08-19T08:16:29;20.07;;;17.30;;
4420;SDS011;11824;51.178;13.546;2022-08-19T08:19:00;19.63;;;16.13;;
4420;SDS011;11824;51.178;13.546;2022-08-19T08:21:41;18.83;;;16.93;;
4420;SDS011;11824;51.178;13.546;2022-08-19T08:24:14;17.80;;;16.10;;
4420;SDS011;11824;51.178;13.546;2022-08-19T08:26:43;21.80;;;16.20;;
4420;SDS011;11824;51.178;13.546;2022-08-19T08:29:22;17.30;;;15.47;;
4420;SDS011;11824;51.178;13.546;2022-08-19T08:32:00;19.60;;;16.50;;
4420;SDS011;11824;51.178;13.546;2022-08-19T08:34:40;16.50;;;14.17;;
4420;SDS011;11824;51.178;13.546;2022-08-19T08:37:10;22.57;;;17.87;;
4420;SDS011;11824;51.178;13.546;2022-08-19T08:39:41;21.73;;;17.60;;
4420;SDS011;11824;51.178;13.546;2022-08-19T08:42:11;19.77;;;17.63;;
4420;SDS011;11824;51.178;13.546;2022-08-19T08:44:55;25.43;;;20.00;;
4420;SDS011;11824;51.178;13.546;2022-08-19T08:47:29;19.63;;;16.30;;
4420;SDS011;11824;51.178;13.546;2022-08-19T08:50:08;24.70;;;16.80;;
4420;SDS011;11824;51.178;13.546;2022-08-19T08:52:43;18.07;;;16.07;;
4420;SDS011;11824;51.178;13.546;2022-08-19T08:55:15;29.40;;;17.50;;
4420;SDS011;11824;51.178;13.546;2022-08-19T08:57:50;23.90;;;18.07;;
4420;SDS011;11824;51.178;13.546;2022-08-19T09:00:22;21.20;;;17.30;;
4420;SDS011;11824;51.178;13.546;2022-08-19T09:02:57;21.90;;;18.63;;
4420;SDS011;11824;51.178;13.546;2022-08-19T09:05:32;21.37;;;19.03;;
4420;SDS011;11824;51.178;13.546;2022-08-19T09:08:18;21.90;;;17.53;;
4420;SDS011;11824;51.178;13.546;2022-08-19T09:10:56;23.73;;;19.13;;
4420;SDS011;11824;51.178;13.546;2022-08-19T09:13:26;20.10;;;18.00;;
4420;SDS011;11824;51.178;13.546;2022-08-19T09:16:06;23.90;;;17.60;;
4420;SDS011;11824;51.178;13.546;2022-08-19T09:18:38;20.77;;;17.70;;
4420;SDS011;11824;51.178;13.546;2022-08-19T09:21:10;23.10;;;20.17;;
4420;SDS011;11824;51.178;13.546;2022-08-19T09:23:42;19.77;;;17.67;;
4420;SDS011;11824;51.178;13.546;2022-08-19T09:26:16;19.83;;;15.63;;
4420;SDS011;11824;51.178;13.546;2022-08-19T09:28:54;16.30;;;14.70;;
4420;SDS011;11824;51.178;13.546;2022-08-19T09:31:25;17.27;;;15.47;;
4420;SDS011;11824;51.178;13.546;2022-08-19T09:33:56;17.97;;;15.80;;
4420;SDS011;11824;51.178;13.546;2022-08-19T09:36:27;19.00;;;15.80;;
4420;SDS011;11824;51.178;13.546;2022-08-19T09:39:02;22.73;;;16.00;;
4420;SDS011;11824;51.178;13.546;2022-08-19T09:41:41;18.27;;;16.17;;
4420;SDS011;11824;51.178;13.546;2022-08-19T09:44:14;20.13;;;15.70;;
4420;SDS011;11824;51.178;13.546;2022-08-19T09:46:44;18.53;;;16.10;;
4420;SDS011;11824;51.178;13.546;2022-08-19T09:49:15;27.60;;;16.47;;
4420;SDS011;11824;51.178;13.546;2022-08-19T09:51:48;22.47;;;16.17;;
4420;SDS011;11824;51.178;13.546;2022-08-19T09:54:22;23.27;;;14.70;;
4420;SDS011;11824;51.178;13.546;2022-08-19T09:56:51;21.83;;;15.03;;
4420;SDS011;11824;51.178;13.546;2022-08-19T09:59:22;17.33;;;14.87;;
4420;SDS011;11824;51.178;13.546;2022-08-19T10:01:51;20.60;;;14.83;;
4420;SDS011;11824;51.178;13.546;2022-08-19T10:04:29;22.80;;;14.83;;
4420;SDS011;11824;51.178;13.546;2022-08-19T10:07:11;17.93;;;13.90;;
4420;SDS011;11824;51.178;13.546;2022-08-19T10:09:41;21.37;;;17.57;;
4420;SDS011;11824;51.178;13.546;2022-08-19T10:12:11;23.50;;;16.80;;
4420;SDS011;11824;51.178;13.546;2022-08-19T10:14:45;15.43;;;12.63;;
4420;SDS011;11824;51.178;13.546;2022-08-19T10:17:14;15.53;;;13.93;;
4420;SDS011;11824;51.178;13.546;2022-08-19T10:19:47;19.50;;;16.00;;
4420;SDS011;11824;51.178;13.546;2022-08-19T10:22:21;23.57;;;16.53;;
4420;SDS011;11824;51.178;13.546;2022-08-19T10:24:54;21.87;;;17.33;;
4420;SDS011;11824;51.178;13.546;2022-08-19T10:27:23;18.80;;;16.67;;
4420;SDS011;11824;51.178;13.546;2022-08-19T10:29:57;21.90;;;17.60;;
4420;SDS011;11824;51.178;13.546;2022-08-19T10:32:26;24.17;;;18.57;;
4420;SDS011;11824;51.178;13.546;2022-08-19T10:34:59;18.07;;;15.53;;
4420;SDS011;11824;51.178;13.546;2022-08-19T10:37:31;23.77;;;16.53;;
4420;SDS011;11824;51.178;13.546;2022-08-19T10:40:02;24.17;;;15.63;;
4420;SDS011;11824;51.178;13.546;2022-08-19T10:42:32;22.53;;;17.80;;
4420;SDS011;11824;51.178;13.546;2022-08-19T10:45:01;18.13;;;15.10;;
4420;SDS011;11824;51.178;13.546;2022-08-19T10:47:33;25.97;;;16.90;;
4420;SDS011;11824;51.178;13.546;2022-08-19T10:50:08;29.30;;;15.37;;
4420;SDS011;11824;51.178;13.546;2022-08-19T10:52:55;22.30;;;17.43;;
4420;SDS011;11824;51.178;13.546;2022-08-19T10:55:25;18.10;;;15.30;;
4420;SDS011;11824;51.178;13.546;2022-08-19T10:58:12;18.03;;;15.10;;
4420;SDS011;11824;51.178;13.546;2022-08-19T11:00:50;19.73;;;16.03;;
4420;SDS011;11824;51.178;13.546;2022-08-19T11:03:20;19.77;;;17.63;;
4420;SDS011;11824;51.178;13.546;2022-08-19T11:05:56;22.37;;;17.63;;
4420;SDS011;11824;51.178;13.546;2022-08-19T11:08:26;19.83;;;17.30;;
4420;SDS011;11824;51.178;13.546;2022-08-19T11:10:59;19.57;;;17.47;;
4420;SDS011;11824;51.178;13.546;2022-08-19T11:13:30;24.43;;;18.47;;
4420;SDS011;11824;51.178;13.546;2022-08-19T11:16:03;23.17;;;20.60;;
4420;SDS011;11824;51.178;13.546;2022-08-19T11:18:35;33.07;;;22.60;;
4420;SDS011;11824;51.178;13.546;2022-08-19T11:21:09;36.17;;;25.33;;
4420;SDS011;11824;51.178;13.546;2022-08-19T11:23:40;35.77;;;27.30;;
4420;SDS011;11824;51.178;13.546;2022-08-19T11:26:12;41.40;;;29.70;;
4420;SDS011;11824;51.178;13.546;2022-08-19T11:28:43;38.70;;;28.63;;
4420;SDS011;11824;51.178;13.546;2022-08-19T11:31:15;40.20;;;28.60;;
4420;SDS011;11824;51.178;13.546;2022-08-19T11:33:50;41.10;;;30.07;;
4420;SDS011;11824;51.178;13.546;2022-08-19T11:36:20;40.27;;;29.97;;
4420;SDS011;11824;51.178;13.546;2022-08-19T11:38:50;40.30;;;29.07;;
4420;SDS011;11824;51.178;13.546;2022-08-19T11:41:22;39.17;;;27.20;;
4420;SDS011;11824;51.178;13.546;2022-08-19T11:43:51;37.80;;;28.40;;
4420;SDS011;11824;51.178;13.546;2022-08-19T11:46:23;45.83;;;29.93;;
4420;SDS011;11824;51.178;13.546;2022-08-19T11:48:55;41.37;;;29.40;;
4420;SDS011;11824;51.178;13.546;2022-08-19T11:51:25;36.97;;;26.73;;
4420;SDS011;11824;51.178;13.546;2022-08-19T11:53:55;38.10;;;27.80;;
4420;SDS011;11824;51.178;13.546;2022-08-19T11:56:27;38.53;;;26.43;;
4420;SDS011;11824;51.178;13.546;2022-08-19T11:58:56;33.30;;;24.70;;
4420;SDS011;11824;51.178;13.546;2022-08-19T12:01:27;33.10;;;25.03;;
4420;SDS011;11824;51.178;13.546;2022-08-19T12:03:57;28.73;;;18.97;;
4420;SDS011;11824;51.178;13.546;2022-08-19T12:06:30;38.83;;;25.53;;
4420;SDS011;11824;51.178;13.546;2022-08-19T12:09:02;36.40;;;25.57;;
4420;SDS011;11824;51.178;13.546;2022-08-19T12:11:33;33.13;;;24.00;;
4420;SDS011;11824;51.178;13.546;2022-08-19T12:14:04;35.23;;;25.83;;
4420;SDS011;11824;51.178;13.546;2022-08-19T12:16:40;37.00;;;23.60;;
4420;SDS011;11824;51.178;13.546;2022-08-19T12:19:16;28.47;;;22.97;;
4420;SDS011;11824;51.178;13.546;2022-08-19T12:21:48;37.20;;;24.33;;
4420;SDS011;11824;51.178;13.546;2022-08-19T12:24:19;30.27;;;22.93;;
4420;SDS011;11824;51.178;13.546;2022-08-19T12:26:51;32.23;;;23.93;;
4420;SDS011;11824;51.178;13.546;2022-08-19T12:29:26;30.77;;;25.23;;
4420;SDS011;11824;51.178;13.546;2022-08-19T12:31:56;34.10;;;25.13;;
4420;SDS011;11824;51.178;13.546;2022-08-19T12:34:37;26.70;;;23.80;;
4420;SDS011;11824;51.178;13.546;2022-08-19T12:37:06;34.23;;;25.80;;
4420;SDS011;11824;51.178;13.546;2022-08-19T12:39:36;28.27;;;24.37;;
4420;SDS011;11824;51.178;13.546;2022-08-19T12:42:07;33.27;;;25.60;;
4420;SDS011;11824;51.178;13.546;2022-08-19T12:44:39;32.83;;;24.27;;
4420;SDS011;11824;51.178;13.546;2022-08-19T12:47:11;36.20;;;24.57;;
4420;SDS011;11824;51.178;13.546;2022-08-19T12:49:41;32.03;;;23.90;;
4420;SDS011;11824;51.178;13.546;2022-08-19T12:52:21;34.50;;;24.57;;
4420;SDS011;11824;51.178;13.546;2022-08-19T12:54:52;35.53;;;25.60;;
4420;SDS011;11824;51.178;13.546;2022-08-19T12:57:25;29.20;;;24.97;;
4420;SDS011;11824;51.178;13.546;2022-08-19T12:59:59;34.07;;;28.03;;
4420;SDS011;11824;51.178;13.546;2022-08-19T13:02:31;32.10;;;25.40;;
4420;SDS011;11824;51.178;13.546;2022-08-19T13:05:05;33.50;;;28.30;;
4420;SDS011;11824;51.178;13.546;2022-08-19T13:07:36;37.50;;;28.10;;
4420;SDS011;11824;51.178;13.546;2022-08-19T13:10:07;30.67;;;25.10;;
4420;SDS011;11824;51.178;13.546;2022-08-19T13:12:41;35.50;;;26.27;;
4420;SDS011;11824;51.178;13.546;2022-08-19T13:15:10;35.60;;;27.00;;
4420;SDS011;11824;51.178;13.546;2022-08-19T13:17:40;36.60;;;28.67;;
4420;SDS011;11824;51.178;13.546;2022-08-19T13:20:10;45.07;;;29.13;;
4420;SDS011;11824;51.178;13.546;2022-08-19T13:22:39;32.60;;;28.67;;
4420;SDS011;11824;51.178;13.546;2022-08-19T13:25:08;43.13;;;29.20;;
4420;SDS011;11824;51.178;13.546;2022-08-19T13:27:38;36.03;;;28.00;;
4420;SDS011;11824;51.178;13.546;2022-08-19T13:30:10;38.00;;;29.50;;
4420;SDS011;11824;51.178;13.546;2022-08-19T13:32:58;35.87;;;27.70;;
4420;SDS011;11824;51.178;13.546;2022-08-19T13:35:43;35.63;;;25.37;;
4420;SDS011;11824;51.178;13.546;2022-08-19T13:38:15;34.30;;;26.30;;
4420;SDS011;11824;51.178;13.546;2022-08-19T13:40:46;37.40;;;27.07;;
4420;SDS011;11824;51.178;13.546;2022-08-19T13:43:20;33.43;;;27.93;;
4420;SDS011;11824;51.178;13.546;2022-08-19T13:45:51;34.30;;;29.03;;
4420;SDS011;11824;51.178;13.546;2022-08-19T13:48:23;34.13;;;27.27;;
4420;SDS011;11824;51.178;13.546;2022-08-19T13:50:53;31.97;;;26.67;;
4420;SDS011;11824;51.178;13.546;2022-08-19T13:53:23;34.10;;;24.50;;
4420;SDS011;11824;51.178;13.546;2022-08-19T13:55:52;34.60;;;26.30;;
4420;SDS011;11824;51.178;13.546;2022-08-19T13:58:22;31.83;;;27.60;;
4420;SDS011;11824;51.178;13.546;2022-08-19T14:00:51;38.00;;;30.53;;
4420;SDS011;11824;51.178;13.546;2022-08-19T14:03:20;38.90;;;30.77;;
4420;SDS011;11824;51.178;13.546;2022-08-19T14:05:50;37.30;;;31.00;;
4420;SDS011;11824;51.178;13.546;2022-08-19T14:08:19;44.53;;;32.20;;
4420;SDS011;11824;51.178;13.546;2022-08-19T14:10:51;43.77;;;34.00;;
4420;SDS011;11824;51.178;13.546;2022-08-19T14:13:23;39.53;;;31.93;;
4420;SDS011;11824;51.178;13.546;2022-08-19T14:15:52;43.70;;;31.93;;
4420;SDS011;11824;51.178;13.546;2022-08-19T14:18:20;43.60;;;32.30;;
4420;SDS011;11824;51.178;13.546;2022-08-19T14:20:54;38.73;;;32.27;;
4420;SDS011;11824;51.178;13.546;2022-08-19T14:23:24;41.60;;;30.90;;
4420;SDS011;11824;51.178;13.546;2022-08-19T14:25:52;37.70;;;31.67;;
4420;SDS011;11824;51.178;13.546;2022-08-19T14:28:31;46.67;;;33.07;;
4420;SDS011;11824;51.178;13.546;2022-08-19T14:31:00;41.37;;;31.40;;
4420;SDS011;11824;51.178;13.546;2022-08-19T14:33:29;39.63;;;32.07;;
4420;SDS011;11824;51.178;13.546;2022-08-19T14:35:58;41.57;;;31.07;;
4420;SDS011;11824;51.178;13.546;2022-08-19T14:38:27;36.90;;;30.80;;
4420;SDS011;11824;51.178;13.546;2022-08-19T14:41:05;37.40;;;31.40;;
4420;SDS011;11824;51.178;13.546;2022-08-19T14:43:45;40.43;;;29.93;;
4420;SDS011;11824;51.178;13.546;2022-08-19T14:46:16;42.03;;;32.13;;
4420;SDS011;11824;51.178;13.546;2022-08-19T14:48:48;38.30;;;30.17;;